createdAt,value
2024-05-09T00:00:47.075Z,61.54
2024-05-09T00:03:17.480Z,61.99
2024-05-09T00:05:46.011Z,62.51
2024-05-09T00:08:13.557Z,62.98
2024-05-09T00:10:41.944Z,62.94
2024-05-09T00:13:10.880Z,63.58
2024-05-09T00:15:39.410Z,64.15
2024-05-09T00:18:07.991Z,64.51
2024-05-09T00:20:39.590Z,65.14
2024-05-09T00:23:12.898Z,65.39
2024-05-09T00:25:43.336Z,65.84
2024-05-09T00:28:14.505Z,66.65
2024-05-09T00:30:43.108Z,66.82
2024-05-09T00:33:11.629Z,66.88
2024-05-09T00:35:40.167Z,67.86
2024-05-09T00:38:07.569Z,68.08
2024-05-09T00:40:40.173Z,67.95
2024-05-09T00:43:14.510Z,67.87
2024-05-09T00:45:43.803Z,68.03
2024-05-09T00:48:16.423Z,68.36
2024-05-09T00:50:47.486Z,68.61
2024-05-09T00:53:16.757Z,68.44
2024-05-09T00:55:44.862Z,68.36
2024-05-09T00:58:15.570Z,68.29
2024-05-09T01:00:44.461Z,68.56
2024-05-09T01:03:14.237Z,68.32
2024-05-09T01:05:43.419Z,68.48
2024-05-09T01:08:12.135Z,68.65
2024-05-09T01:10:42.864Z,68.30
2024-05-09T01:13:12.692Z,68.91
2024-05-09T01:15:43.550Z,68.98
2024-05-09T01:18:13.546Z,68.78
2024-05-09T01:20:44.117Z,68.88
2024-05-09T01:23:15.241Z,69.14
2024-05-09T01:25:45.126Z,69.10
2024-05-09T01:28:14.340Z,68.82
2024-05-09T01:30:41.505Z,68.91
2024-05-09T01:33:10.752Z,69.31
2024-05-09T01:35:42.888Z,69.50
2024-05-09T01:38:14.329Z,69.42
2024-05-09T01:40:43.682Z,69.52
2024-05-09T01:43:12.075Z,69.58
2024-05-09T01:45:41.758Z,69.32
2024-05-09T01:48:11.748Z,69.60
2024-05-09T01:50:43.306Z,70.04
2024-05-09T01:53:15.137Z,70.08
2024-05-09T01:55:44.504Z,70.08
2024-05-09T01:58:13.699Z,70.31
2024-05-09T02:00:42.887Z,70.68
2024-05-09T02:03:15.847Z,71.37
2024-05-09T02:05:46.883Z,71.57
2024-05-09T02:08:19.453Z,71.44
2024-05-09T02:10:49.835Z,71.28
2024-05-09T02:13:19.179Z,71.59
2024-05-09T02:15:46.480Z,71.87
2024-05-09T02:18:14.380Z,71.83
2024-05-09T02:20:44.980Z,72.38
2024-05-09T02:23:12.878Z,72.19
2024-05-09T02:25:42.438Z,72.14
2024-05-09T02:28:09.558Z,72.55
2024-05-09T02:30:40.661Z,72.43
2024-05-09T02:33:12.179Z,72.45
2024-05-09T02:35:41.779Z,72.89
2024-05-09T02:38:13.067Z,72.03
2024-05-09T02:40:41.273Z,72.64
2024-05-09T02:43:13.252Z,72.80
2024-05-09T02:45:41.899Z,72.92
2024-05-09T02:48:13.117Z,73.55
2024-05-09T02:50:41.405Z,74.17
2024-05-09T02:53:10.069Z,75.51
2024-05-09T02:55:38.728Z,76.68
2024-05-09T02:58:10.772Z,77.91
2024-05-09T03:00:41.284Z,81.46
2024-05-09T03:03:14.749Z,83.73
2024-05-09T03:05:47.553Z,84.60
2024-05-09T03:08:14.948Z,84.55
2024-05-09T03:10:46.893Z,84.44
2024-05-09T03:13:16.156Z,85.67
2024-05-09T03:15:45.304Z,86.56
2024-05-09T03:18:16.025Z,88.27
2024-05-09T03:20:48.437Z,87.56
2024-05-09T03:23:15.977Z,87.10
2024-05-09T03:25:44.393Z,87.88
2024-05-09T03:28:11.983Z,87.07
2024-05-09T03:30:42.345Z,87.31
2024-05-09T03:33:19.433Z,89.07
2024-05-09T03:35:49.057Z,91.01
2024-05-09T03:38:17.395Z,92.47
2024-05-09T03:40:46.781Z,94.17
2024-05-09T03:43:14.691Z,95.07
2024-05-09T03:45:46.103Z,96.53
2024-05-09T03:48:13.798Z,99.24
2024-05-09T03:50:44.768Z,98.46
2024-05-09T03:53:19.369Z,98.60
2024-05-09T03:55:49.830Z,99.57
2024-05-09T03:58:19.315Z,97.16
2024-05-09T04:00:46.990Z,96.31
2024-05-09T04:03:15.580Z,97.48
2024-05-09T04:05:44.672Z,99.05
2024-05-09T04:08:12.376Z,97.92
2024-05-09T04:10:42.684Z,98.08
2024-05-09T04:13:11.220Z,99.26
2024-05-09T04:15:39.138Z,98.54
2024-05-09T04:18:07.046Z,99.28
2024-05-09T04:20:39.019Z,100.00
2024-05-09T04:23:11.024Z,100.00
2024-05-09T04:25:42.692Z,100.00
2024-05-09T04:28:13.609Z,100.00
2024-05-09T04:30:42.668Z,100.00
2024-05-09T04:33:15.959Z,100.00
2024-05-09T04:35:45.860Z,100.00
2024-05-09T04:38:14.399Z,100.00
2024-05-09T04:40:43.665Z,100.00
2024-05-09T04:43:17.575Z,100.00
2024-05-09T04:45:45.057Z,100.00
2024-05-09T04:48:17.100Z,99.95
2024-05-09T04:50:44.443Z,98.62
2024-05-09T04:53:16.536Z,98.42
2024-05-09T04:55:46.065Z,97.23
2024-05-09T04:58:16.803Z,95.76
2024-05-09T05:00:44.393Z,94.74
2024-05-09T05:03:14.704Z,92.20
2024-05-09T05:05:45.427Z,89.78
2024-05-09T05:08:18.635Z,87.36
2024-05-09T05:10:48.697Z,84.25
2024-05-09T05:13:20.379Z,82.78
2024-05-09T05:15:51.475Z,81.71
2024-05-09T05:18:19.372Z,80.13
2024-05-09T05:20:47.328Z,79.04
2024-05-09T05:23:18.919Z,77.69
2024-05-09T05:25:49.836Z,77.36
2024-05-09T05:28:19.363Z,77.21
2024-05-09T05:30:46.846Z,77.24
2024-05-09T05:33:19.262Z,77.24
2024-05-09T05:35:47.348Z,75.69
2024-05-09T05:38:14.954Z,75.41
2024-05-09T05:40:42.607Z,74.91
2024-05-09T05:43:17.009Z,74.45
2024-05-09T05:45:44.471Z,74.72
2024-05-09T05:48:13.884Z,74.46
2024-05-09T05:50:41.923Z,72.81
2024-05-09T05:53:10.638Z,74.89
2024-05-09T05:55:42.857Z,75.08
2024-05-09T05:58:11.373Z,73.38
2024-05-09T06:00:40.304Z,72.75
2024-05-09T06:03:13.031Z,73.57
2024-05-09T06:05:43.934Z,72.85
2024-05-09T06:08:12.317Z,72.30
2024-05-09T06:10:42.443Z,70.58
2024-05-09T06:13:13.529Z,70.06
2024-05-09T06:15:42.363Z,72.01
2024-05-09T06:18:12.646Z,72.48
2024-05-09T06:20:43.644Z,70.11
2024-05-09T06:23:13.110Z,68.30
2024-05-09T06:25:40.968Z,67.94
2024-05-09T06:28:10.835Z,67.86
2024-05-09T06:30:42.427Z,66.80
2024-05-09T06:33:14.182Z,66.69
2024-05-09T06:35:46.699Z,65.80
2024-05-09T06:38:13.974Z,65.29
2024-05-09T06:40:43.981Z,65.27
2024-05-09T06:43:18.298Z,65.58
2024-05-09T06:45:48.686Z,65.32
2024-05-09T06:48:19.741Z,64.20
2024-05-09T06:50:48.324Z,63.63
2024-05-09T06:53:16.539Z,63.10
2024-05-09T06:55:44.152Z,62.82
2024-05-09T06:58:11.541Z,63.32
2024-05-09T07:00:44.171Z,63.50
2024-05-09T07:03:18.124Z,63.37
2024-05-09T07:05:48.440Z,61.57
2024-05-09T07:08:17.305Z,61.20
2024-05-09T07:10:45.019Z,60.56
2024-05-09T07:13:15.223Z,59.91
2024-05-09T07:15:43.850Z,60.14
2024-05-09T07:18:13.025Z,59.47
2024-05-09T07:20:42.221Z,59.22
2024-05-09T07:23:11.030Z,59.22
2024-05-09T07:25:39.962Z,58.51
2024-05-09T07:28:11.903Z,58.39
2024-05-09T07:30:39.217Z,58.81
2024-05-09T07:33:09.961Z,59.24
2024-05-09T07:35:38.427Z,58.08
2024-05-09T07:38:06.129Z,57.23
2024-05-09T07:40:36.522Z,56.89
2024-05-09T07:43:05.602Z,56.46
2024-05-09T07:53:36.349Z,55.52
2024-05-09T07:55:56.206Z,54.05
2024-05-09T07:58:27.873Z,54.80
2024-05-09T08:00:58.353Z,53.45
2024-05-09T08:03:26.880Z,52.62
2024-05-09T08:05:56.537Z,52.41
2024-05-09T08:08:23.758Z,50.59
2024-05-09T08:10:51.738Z,50.02
2024-05-09T08:13:19.261Z,49.50
2024-05-09T08:15:46.841Z,48.96
2024-05-09T08:18:18.362Z,50.49
2024-05-09T08:20:49.966Z,48.84
2024-05-09T08:23:19.749Z,47.45
2024-05-09T08:25:50.331Z,47.91
2024-05-09T08:28:17.920Z,49.25
2024-05-09T08:30:45.562Z,49.40
2024-05-09T08:33:13.320Z,47.55
2024-05-09T08:35:40.698Z,46.53
2024-05-09T08:38:10.298Z,45.76
2024-05-09T08:40:38.542Z,47.18
2024-05-09T08:43:11.666Z,48.04
2024-05-09T08:45:44.672Z,44.61
2024-05-09T08:48:15.853Z,44.68
2024-05-09T08:50:45.820Z,45.72
2024-05-09T08:53:15.118Z,45.27
2024-05-09T08:55:46.160Z,46.86
2024-05-09T08:58:17.047Z,44.58
2024-05-09T09:00:47.816Z,42.76
2024-05-09T09:03:20.047Z,43.44
2024-05-09T09:05:58.788Z,42.77
2024-05-09T09:08:26.878Z,41.99
2024-05-09T09:10:58.793Z,43.80
2024-05-09T09:13:26.886Z,41.28
2024-05-09T09:15:57.991Z,42.81
2024-05-09T09:18:27.208Z,42.05
2024-05-09T09:20:55.642Z,42.61
2024-05-09T09:23:23.335Z,43.23
2024-05-09T09:25:51.010Z,41.56
2024-05-09T09:28:22.956Z,40.36
2024-05-09T09:30:50.344Z,40.17
2024-05-09T09:33:18.291Z,41.49
2024-05-09T09:35:46.994Z,39.13
2024-05-09T09:38:23.251Z,39.22
2024-05-09T09:40:51.035Z,40.77
2024-05-09T09:43:22.958Z,38.33
2024-05-09T09:45:59.898Z,39.41
2024-05-09T09:48:31.710Z,39.20
2024-05-09T09:50:59.968Z,39.01
2024-05-09T09:53:29.274Z,37.91
2024-05-09T09:55:58.014Z,38.45
2024-05-09T09:58:25.946Z,40.24
2024-05-09T10:00:55.717Z,39.22
2024-05-09T10:03:27.588Z,40.16
2024-05-09T10:05:56.180Z,38.70
2024-05-09T10:08:25.017Z,40.27
2024-05-09T10:10:52.919Z,38.14
2024-05-09T10:13:20.803Z,38.50
2024-05-09T10:15:52.285Z,40.05
2024-05-09T10:18:28.122Z,37.29
2024-05-09T10:20:58.048Z,35.82
2024-05-09T10:23:33.832Z,35.72
2024-05-09T10:26:06.357Z,35.78
2024-05-09T10:28:42.261Z,37.58
2024-05-09T10:31:15.052Z,36.12
2024-05-09T10:33:51.707Z,35.55
2024-05-09T10:36:29.197Z,36.03
2024-05-09T10:38:56.592Z,35.55
2024-05-09T10:41:24.265Z,36.05
2024-05-09T10:43:52.442Z,36.34
2024-05-09T10:46:21.399Z,34.80
2024-05-09T10:48:49.369Z,34.93
2024-05-09T10:51:20.074Z,34.81
2024-05-09T10:53:48.710Z,35.37
2024-05-09T10:56:17.311Z,34.78
2024-05-09T10:58:45.030Z,34.93
2024-05-09T11:01:14.086Z,34.24
2024-05-09T11:03:42.835Z,34.60
2024-05-09T11:06:11.775Z,35.96
2024-05-09T11:08:39.646Z,33.75
2024-05-09T11:11:11.194Z,32.65
2024-05-09T11:13:39.517Z,33.60
2024-05-09T11:16:17.666Z,31.73
2024-05-09T11:18:59.058Z,31.32
2024-05-09T11:21:27.136Z,31.24
2024-05-09T11:23:55.320Z,32.39
2024-05-09T11:26:25.485Z,31.89
2024-05-09T11:28:52.903Z,30.69
2024-05-09T11:31:21.478Z,29.07
2024-05-09T11:33:49.364Z,29.55
2024-05-09T11:36:17.050Z,29.29
2024-05-09T11:38:44.158Z,29.21
2024-05-09T11:41:21.437Z,29.87
2024-05-09T11:43:48.818Z,29.68
2024-05-09T11:46:16.482Z,30.02
2024-05-09T11:48:43.841Z,28.39
2024-05-09T11:51:11.129Z,27.87
2024-05-09T11:53:38.628Z,29.88
2024-05-09T11:56:08.140Z,27.86
2024-05-09T11:58:38.510Z,26.97
2024-05-09T12:01:06.223Z,27.89
2024-05-09T12:03:38.944Z,28.22
2024-05-09T12:06:09.727Z,27.71
2024-05-09T12:08:39.440Z,27.98
2024-05-09T12:11:08.025Z,27.76
2024-05-09T12:13:36.352Z,27.42
2024-05-09T12:16:03.770Z,27.19
2024-05-09T12:18:31.691Z,28.56
2024-05-09T12:21:01.129Z,28.17
2024-05-09T12:23:28.747Z,28.17
2024-05-09T12:25:57.129Z,28.27
2024-05-09T12:28:26.666Z,27.82
2024-05-09T12:30:54.037Z,28.26
2024-05-09T12:33:22.052Z,27.72
2024-05-09T12:35:51.011Z,27.52
2024-05-09T12:38:19.411Z,27.06
2024-05-09T12:40:47.097Z,27.55
2024-05-09T12:43:14.318Z,26.87
2024-05-09T12:45:41.990Z,26.51
2024-05-09T12:48:13.268Z,26.92
2024-05-09T12:50:42.792Z,27.85
2024-05-09T12:53:10.408Z,26.96
2024-05-09T12:55:45.154Z,27.45
2024-05-09T12:58:22.771Z,26.70
2024-05-09T13:00:52.203Z,27.99
2024-05-09T13:03:19.682Z,27.39
2024-05-09T13:05:47.502Z,28.81
2024-05-09T13:08:14.959Z,28.24
2024-05-09T13:10:44.535Z,27.97
2024-05-09T13:13:14.382Z,28.20
2024-05-09T13:15:41.639Z,28.33
2024-05-09T13:18:10.307Z,28.59
2024-05-09T13:20:38.583Z,28.98
2024-05-09T13:23:08.315Z,28.94
2024-05-09T13:25:38.047Z,28.00
2024-05-09T13:28:07.019Z,28.56
2024-05-09T13:30:40.180Z,28.61
2024-05-09T13:33:14.127Z,28.46
2024-05-09T13:35:47.085Z,28.42
2024-05-09T13:38:18.503Z,27.63
2024-05-09T13:40:46.039Z,26.33
2024-05-09T13:43:13.880Z,26.63
2024-05-09T13:45:42.951Z,28.47
2024-05-09T13:48:10.659Z,27.63
2024-05-09T13:50:39.468Z,26.67
2024-05-09T13:53:09.676Z,27.51
2024-05-09T13:55:41.007Z,27.54
2024-05-09T13:58:09.877Z,29.00
2024-05-09T14:00:46.677Z,28.86
2024-05-09T14:03:18.659Z,28.28
2024-05-09T14:05:48.305Z,27.63
2024-05-09T14:08:19.859Z,28.48
2024-05-09T14:10:48.932Z,28.87
2024-05-09T14:13:17.878Z,28.77
2024-05-09T14:15:46.355Z,28.77
2024-05-09T14:18:14.501Z,29.59
2024-05-09T14:20:44.148Z,29.27
2024-05-09T14:23:20.781Z,29.55
2024-05-09T14:25:51.871Z,29.13
2024-05-09T14:28:22.172Z,29.38
2024-05-09T14:30:49.840Z,28.78
2024-05-09T14:33:23.820Z,27.89
2024-05-09T14:35:51.476Z,27.30
2024-05-09T14:38:18.837Z,27.73
2024-05-09T14:40:46.318Z,26.92
2024-05-09T14:43:16.046Z,26.22
2024-05-09T14:45:44.762Z,27.07
2024-05-09T14:48:15.682Z,27.35
2024-05-09T14:50:43.556Z,26.76
2024-05-09T14:53:12.691Z,25.81
2024-05-09T14:55:42.213Z,26.15
2024-05-09T14:58:11.546Z,26.36
2024-05-09T15:00:46.257Z,25.87
2024-05-09T15:03:21.089Z,26.32
2024-05-09T15:05:49.698Z,25.70
2024-05-09T15:08:18.450Z,26.04
2024-05-09T15:10:47.342Z,25.51
2024-05-09T15:13:17.419Z,26.01
2024-05-09T15:15:45.483Z,25.95
2024-05-09T15:18:14.311Z,26.17
2024-05-09T15:20:45.336Z,24.94
2024-05-09T15:23:13.724Z,25.22
2024-05-09T15:25:41.276Z,24.85
2024-05-09T15:28:08.953Z,24.69
2024-05-09T15:30:37.230Z,24.98
2024-05-09T15:33:06.435Z,24.70
2024-05-09T15:35:35.096Z,24.85
2024-05-09T15:38:03.731Z,24.84
2024-05-09T15:40:39.199Z,24.62
2024-05-09T15:43:10.609Z,24.05
2024-05-09T15:45:42.385Z,24.39
2024-05-09T15:48:12.175Z,23.82
2024-05-09T15:50:41.994Z,23.94
2024-05-09T15:53:12.204Z,25.07
2024-05-09T15:55:40.683Z,25.18
2024-05-09T15:58:08.483Z,25.64
2024-05-09T16:00:39.816Z,25.12
2024-05-09T16:03:11.744Z,25.09
2024-05-09T16:05:41.195Z,25.26
2024-05-09T16:08:09.231Z,26.40
2024-05-09T16:10:48.250Z,26.35
2024-05-09T16:13:17.570Z,27.01
2024-05-09T16:15:46.588Z,27.21
2024-05-09T16:18:15.279Z,27.61
2024-05-09T16:20:46.463Z,27.37
2024-05-09T16:23:15.669Z,28.27
2024-05-09T16:25:46.366Z,28.04
2024-05-09T16:28:14.094Z,27.84
2024-05-09T16:30:41.852Z,27.87
2024-05-09T16:33:13.598Z,28.80
2024-05-09T16:35:44.821Z,27.59
2024-05-09T16:38:12.506Z,27.87
2024-05-09T16:40:41.352Z,27.87
2024-05-09T16:43:13.358Z,28.24
2024-05-09T16:45:44.971Z,28.06
2024-05-09T16:48:14.640Z,28.08
2024-05-09T16:50:44.990Z,28.65
2024-05-09T16:53:13.931Z,28.50
2024-05-09T16:55:41.058Z,29.46
2024-05-09T16:58:08.856Z,30.84
2024-05-09T17:00:41.593Z,31.01
2024-05-09T17:03:15.763Z,30.54
2024-05-09T17:05:46.783Z,30.71
2024-05-09T17:08:16.065Z,30.89
2024-05-09T17:10:43.411Z,30.29
2024-05-09T17:13:13.411Z,30.69
2024-05-09T17:15:42.772Z,30.58
2024-05-09T17:18:10.231Z,31.32
2024-05-09T17:20:38.122Z,31.47
2024-05-09T17:23:13.701Z,32.00
2024-05-09T17:25:42.819Z,32.05
2024-05-09T17:28:12.013Z,32.19
2024-05-09T17:30:42.478Z,33.05
2024-05-09T17:33:11.651Z,33.93
2024-05-09T17:35:41.196Z,33.83
2024-05-09T17:38:11.738Z,34.98
2024-05-09T17:40:39.562Z,35.34
2024-05-09T17:43:10.859Z,36.04
2024-05-09T17:45:40.497Z,36.56
2024-05-09T17:48:12.680Z,36.99
2024-05-09T17:50:41.425Z,37.16
2024-05-09T17:53:10.813Z,37.42
2024-05-09T17:55:39.896Z,37.34
2024-05-09T17:58:08.081Z,38.12
2024-05-09T18:00:39.601Z,38.50
2024-05-09T18:03:13.788Z,38.77
2024-05-09T18:05:44.413Z,39.59
2024-05-09T18:08:13.231Z,39.08
2024-05-09T18:10:41.682Z,39.48
2024-05-09T18:13:10.102Z,40.46
2024-05-09T18:15:38.582Z,41.76
2024-05-09T18:18:07.677Z,42.84
2024-05-09T18:20:42.399Z,43.27
2024-05-09T18:23:16.379Z,43.96
2024-05-09T18:25:47.265Z,45.64
2024-05-09T18:28:16.223Z,46.21
2024-05-09T18:30:44.358Z,46.04
2024-05-09T18:33:12.347Z,46.31
2024-05-09T18:35:43.318Z,48.35
2024-05-09T18:38:13.122Z,48.83
2024-05-09T18:40:42.996Z,48.56
2024-05-09T18:43:12.347Z,49.87
2024-05-09T18:45:40.508Z,49.16
2024-05-09T18:48:12.139Z,49.51
2024-05-09T18:50:42.014Z,51.62
2024-05-09T18:53:11.803Z,51.41
2024-05-09T18:55:41.234Z,51.22
2024-05-09T18:58:08.584Z,51.75
2024-05-09T19:00:39.861Z,52.27
2024-05-09T19:03:15.365Z,51.99
2024-05-09T19:05:45.240Z,51.58
2024-05-09T19:08:13.487Z,51.24
2024-05-09T19:10:41.264Z,52.70
2024-05-09T19:13:12.318Z,53.21
2024-05-09T19:15:42.780Z,54.24
2024-05-09T19:18:15.416Z,54.03
2024-05-09T19:20:49.610Z,54.81
2024-05-09T19:23:17.094Z,55.56
2024-05-09T19:25:45.652Z,56.48
2024-05-09T19:28:13.014Z,56.99
2024-05-09T19:30:42.820Z,57.03
2024-05-09T19:33:18.616Z,56.82
2024-05-09T19:35:46.163Z,55.29
2024-05-09T19:38:13.842Z,55.75
2024-05-09T19:40:41.145Z,57.45
2024-05-09T19:43:08.808Z,57.31
2024-05-09T19:45:37.544Z,58.10
2024-05-09T19:48:06.773Z,58.31
2024-05-09T19:50:41.672Z,57.13
2024-05-09T19:53:13.695Z,59.05
2024-05-09T19:55:43.092Z,62.05
2024-05-09T19:58:11.889Z,63.20
2024-05-09T20:00:42.310Z,63.35
2024-05-09T20:03:14.981Z,63.85
2024-05-09T20:05:46.512Z,62.54
2024-05-09T20:08:14.917Z,64.00
2024-05-09T20:10:45.364Z,63.79
2024-05-09T20:13:14.873Z,64.57
2024-05-09T20:15:42.353Z,65.45
2024-05-09T20:18:09.924Z,67.40
2024-05-09T20:20:41.520Z,65.34
2024-05-09T20:23:14.457Z,64.54
2024-05-09T20:25:42.564Z,64.57
2024-05-09T20:28:10.870Z,64.85
2024-05-09T20:30:38.831Z,67.14
2024-05-09T20:33:07.920Z,69.75
2024-05-09T20:35:36.584Z,71.82
2024-05-09T20:38:05.708Z,72.23
2024-05-09T20:40:38.892Z,73.47
2024-05-09T20:43:10.850Z,72.33
2024-05-09T20:45:40.288Z,71.38
2024-05-09T20:48:09.468Z,71.03
2024-05-09T20:50:41.142Z,71.04
2024-05-09T20:53:13.104Z,71.80
2024-05-09T20:55:41.651Z,72.55
2024-05-09T20:58:10.035Z,73.08
2024-05-09T21:00:42.565Z,74.12
2024-05-09T21:03:14.161Z,71.94
2024-05-09T21:05:42.694Z,72.80
2024-05-09T21:08:09.885Z,73.81
2024-05-09T21:10:37.800Z,73.84
2024-05-09T21:13:06.846Z,75.00
2024-05-09T21:15:35.598Z,75.15
2024-05-09T21:18:04.053Z,75.23
2024-05-09T21:20:33.556Z,74.55
2024-05-09T21:23:02.587Z,74.09
2024-05-09T21:25:29.929Z,74.53
2024-05-09T21:27:57.978Z,74.69
2024-05-09T21:30:37.364Z,73.86
2024-05-09T21:33:10.485Z,76.12
2024-05-09T21:35:41.072Z,77.24
2024-05-09T21:38:09.316Z,77.05
2024-05-09T21:40:38.164Z,77.59
2024-05-09T21:43:07.318Z,79.08
2024-05-09T21:45:37.880Z,78.80
2024-05-09T21:48:06.416Z,79.47
2024-05-09T21:50:40.419Z,79.67
2024-05-09T21:53:12.858Z,80.41
2024-05-09T21:55:43.095Z,79.27
2024-05-09T21:58:11.916Z,79.64
2024-05-09T22:00:40.957Z,80.74
2024-05-09T22:03:10.277Z,80.51
2024-05-09T22:05:42.340Z,82.08
2024-05-09T22:08:09.978Z,83.27
2024-05-09T22:10:37.711Z,85.21
2024-05-09T22:13:07.143Z,88.29
2024-05-09T22:15:40.316Z,92.00
2024-05-09T22:18:08.945Z,92.21
2024-05-09T22:20:39.566Z,89.77
2024-05-09T22:23:09.020Z,89.82
2024-05-09T22:25:38.857Z,91.82
2024-05-09T22:28:06.828Z,92.86
2024-05-09T22:30:38.227Z,94.22
2024-05-09T22:33:11.068Z,93.18
2024-05-09T22:35:40.956Z,93.12
2024-05-09T22:38:09.353Z,93.48
2024-05-09T22:40:46.775Z,95.20
2024-05-09T22:43:24.328Z,96.04
2024-05-09T22:45:54.980Z,96.75
2024-05-09T22:48:24.378Z,96.58
2024-05-09T22:50:52.335Z,97.41
2024-05-09T22:53:23.931Z,96.68
2024-05-09T22:55:53.539Z,95.12
2024-05-09T22:58:21.130Z,92.31
2024-05-09T23:00:50.751Z,92.59
2024-05-09T23:03:21.536Z,93.46
2024-05-09T23:05:52.204Z,95.66
2024-05-09T23:08:19.612Z,97.20
2024-05-09T23:10:47.240Z,98.60
2024-05-09T23:13:14.613Z,99.32
2024-05-09T23:15:44.161Z,99.76
2024-05-09T23:18:11.799Z,100.00
2024-05-09T23:20:40.193Z,99.96
2024-05-09T23:23:08.970Z,99.67
2024-05-09T23:25:43.994Z,99.91
2024-05-09T23:28:11.854Z,100.00
2024-05-09T23:30:41.158Z,100.00
2024-05-09T23:33:13.904Z,99.76
2024-05-09T23:35:44.606Z,96.33
2024-05-09T23:38:12.959Z,92.83
2024-05-09T23:40:41.809Z,90.48
2024-05-09T23:43:11.958Z,89.58
2024-05-09T23:45:43.031Z,88.31
2024-05-09T23:48:11.520Z,87.39
2024-05-09T23:50:40.287Z,86.96
2024-05-09T23:53:09.632Z,87.79
2024-05-09T23:55:38.643Z,88.81
2024-05-09T23:58:07.910Z,88.92
